sensor_id;sensor_type;location;lat;lon;timestamp;temperature;humidity
27747;DHT22;15138;51.012;4.692;2023-08-24T00:00:48;21.10;99.90
27747;DHT22;15138;51.012;4.692;2023-08-24T00:03:16;20.90;99.90
27747;DHT22;15138;51.012;4.692;2023-08-24T00:05:47;20.90;99.90
27747;DHT22;15138;51.012;4.692;2023-08-24T00:08:16;20.90;99.90
27747;DHT22;15138;51.012;4.692;2023-08-24T00:10:45;20.80;99.90
27747;DHT22;15138;51.012;4.692;2023-08-24T00:13:14;20.80;99.90
27747;DHT22;15138;51.012;4.692;2023-08-24T00:15:42;20.80;99.90
27747;DHT22;15138;51.012;4.692;2023-08-24T00:18:10;20.80;99.90
27747;DHT22;15138;51.012;4.692;2023-08-24T00:20:39;20.80;99.90
27747;DHT22;15138;51.012;4.692;2023-08-24T00:23:08;20.70;99.90
27747;DHT22;15138;51.012;4.692;2023-08-24T00:25:36;20.70;99.90
27747;DHT22;15138;51.012;4.692;2023-08-24T00:28:05;20.60;99.90
27747;DHT22;15138;51.012;4.692;2023-08-24T00:30:33;20.60;99.90
27747;DHT22;15138;51.012;4.692;2023-08-24T00:33:01;20.60;99.90
27747;DHT22;15138;51.012;4.692;2023-08-24T00:35:29;20.60;99.90
27747;DHT22;15138;51.012;4.692;2023-08-24T00:37:57;20.50;99.90
27747;DHT22;15138;51.012;4.692;2023-08-24T00:40:28;20.40;99.90
27747;DHT22;15138;51.012;4.692;2023-08-24T00:42:56;20.30;99.90
27747;DHT22;15138;51.012;4.692;2023-08-24T00:45:24;20.20;99.90
27747;DHT22;15138;51.012;4.692;2023-08-24T00:47:52;20.10;99.90
27747;DHT22;15138;51.012;4.692;2023-08-24T00:50:21;20.20;99.90
27747;DHT22;15138;51.012;4.692;2023-08-24T00:52:49;20.30;99.90
27747;DHT22;15138;51.012;4.692;2023-08-24T00:55:17;20.30;99.90
27747;DHT22;15138;51.012;4.692;2023-08-24T00:57:47;20.40;99.90
27747;DHT22;15138;51.012;4.692;2023-08-24T01:00:17;20.40;99.90
27747;DHT22;15138;51.012;4.692;2023-08-24T01:02:45;20.40;99.90
27747;DHT22;15138;51.012;4.692;2023-08-24T01:05:13;20.40;99.90
27747;DHT22;15138;51.012;4.692;2023-08-24T01:07:41;20.50;99.90
27747;DHT22;15138;51.012;4.692;2023-08-24T01:10:10;20.40;99.90
27747;DHT22;15138;51.012;4.692;2023-08-24T01:12:52;20.40;99.90
27747;DHT22;15138;51.012;4.692;2023-08-24T01:15:32;20.40;99.90
27747;DHT22;15138;51.012;4.692;2023-08-24T01:18:04;20.40;99.90
27747;DHT22;15138;51.012;4.692;2023-08-24T01:20:34;20.40;99.90
27747;DHT22;15138;51.012;4.692;2023-08-24T01:23:09;20.50;99.90
27747;DHT22;15138;51.012;4.692;2023-08-24T01:25:46;20.50;99.90
27747;DHT22;15138;51.012;4.692;2023-08-24T01:28:18;20.50;99.90
27747;DHT22;15138;51.012;4.692;2023-08-24T01:30:47;20.50;99.90
27747;DHT22;15138;51.012;4.692;2023-08-24T01:33:15;20.50;99.90
27747;DHT22;15138;51.012;4.692;2023-08-24T01:35:44;20.50;99.90
27747;DHT22;15138;51.012;4.692;2023-08-24T01:38:12;20.50;99.90
27747;DHT22;15138;51.012;4.692;2023-08-24T01:40:48;20.50;99.90
27747;DHT22;15138;51.012;4.692;2023-08-24T01:43:21;20.60;99.90
27747;DHT22;15138;51.012;4.692;2023-08-24T01:46:11;20.60;99.90
27747;DHT22;15138;51.012;4.692;2023-08-24T01:48:42;20.60;99.90
27747;DHT22;15138;51.012;4.692;2023-08-24T01:51:11;20.50;99.90
27747;DHT22;15138;51.012;4.692;2023-08-24T01:53:40;20.50;99.90
27747;DHT22;15138;51.012;4.692;2023-08-24T01:56:09;20.50;99.90
27747;DHT22;15138;51.012;4.692;2023-08-24T01:58:40;20.60;99.90
27747;DHT22;15138;51.012;4.692;2023-08-24T02:01:08;20.60;99.90
27747;DHT22;15138;51.012;4.692;2023-08-24T02:03:38;20.50;99.90
27747;DHT22;15138;51.012;4.692;2023-08-24T02:06:07;20.60;99.90
27747;DHT22;15138;51.012;4.692;2023-08-24T02:08:35;20.50;99.90
27747;DHT22;15138;51.012;4.692;2023-08-24T02:11:03;20.40;1.00
27747;DHT22;15138;51.012;4.692;2023-08-24T02:13:31;20.40;1.00
27747;DHT22;15138;51.012;4.692;2023-08-24T02:16:05;20.50;1.00
27747;DHT22;15138;51.012;4.692;2023-08-24T02:18:34;20.50;1.00
27747;DHT22;15138;51.012;4.692;2023-08-24T02:21:07;20.40;1.00
27747;DHT22;15138;51.012;4.692;2023-08-24T02:23:35;20.30;8.10
27747;DHT22;15138;51.012;4.692;2023-08-24T02:26:03;20.20;98.60
27747;DHT22;15138;51.012;4.692;2023-08-24T02:28:32;20.10;99.90
27747;DHT22;15138;51.012;4.692;2023-08-24T02:31:01;20.00;99.90
27747;DHT22;15138;51.012;4.692;2023-08-24T02:33:30;19.80;1.00
27747;DHT22;15138;51.012;4.692;2023-08-24T02:35:59;19.70;4.10
27747;DHT22;15138;51.012;4.692;2023-08-24T02:38:27;19.70;1.00
27747;DHT22;15138;51.012;4.692;2023-08-24T02:41:05;19.70;1.00
27747;DHT22;15138;51.012;4.692;2023-08-24T02:43:36;19.70;1.00
27747;DHT22;15138;51.012;4.692;2023-08-24T02:46:08;19.70;1.00
27747;DHT22;15138;51.012;4.692;2023-08-24T02:48:38;19.70;1.00
27747;DHT22;15138;51.012;4.692;2023-08-24T02:51:08;19.70;1.00
27747;DHT22;15138;51.012;4.692;2023-08-24T02:53:36;19.70;99.90
27747;DHT22;15138;51.012;4.692;2023-08-24T02:56:05;19.70;1.00
27747;DHT22;15138;51.012;4.692;2023-08-24T02:58:33;19.70;1.00
27747;DHT22;15138;51.012;4.692;2023-08-24T03:01:04;19.80;99.90
27747;DHT22;15138;51.012;4.692;2023-08-24T03:03:33;19.90;99.90
27747;DHT22;15138;51.012;4.692;2023-08-24T03:06:04;20.00;99.90
27747;DHT22;15138;51.012;4.692;2023-08-24T03:08:33;20.00;56.30
27747;DHT22;15138;51.012;4.692;2023-08-24T03:11:02;20.10;1.00
27747;DHT22;15138;51.012;4.692;2023-08-24T03:13:31;20.10;62.00
27747;DHT22;15138;51.012;4.692;2023-08-24T03:16:03;20.10;1.00
27747;DHT22;15138;51.012;4.692;2023-08-24T03:18:32;20.20;1.00
27747;DHT22;15138;51.012;4.692;2023-08-24T03:21:00;20.20;1.00
27747;DHT22;15138;51.012;4.692;2023-08-24T03:23:30;20.30;1.00
27747;DHT22;15138;51.012;4.692;2023-08-24T03:25:58;20.30;1.00
27747;DHT22;15138;51.012;4.692;2023-08-24T03:28:26;20.20;1.00
27747;DHT22;15138;51.012;4.692;2023-08-24T03:30:55;20.20;1.00
27747;DHT22;15138;51.012;4.692;2023-08-24T03:33:23;20.20;1.00
27747;DHT22;15138;51.012;4.692;2023-08-24T03:35:51;20.20;1.00
27747;DHT22;15138;51.012;4.692;2023-08-24T03:38:19;20.20;1.00
27747;DHT22;15138;51.012;4.692;2023-08-24T03:40:49;20.10;66.30
27747;DHT22;15138;51.012;4.692;2023-08-24T03:43:17;19.90;99.90
27747;DHT22;15138;51.012;4.692;2023-08-24T03:45:45;19.80;99.90
27747;DHT22;15138;51.012;4.692;2023-08-24T03:48:13;19.80;99.90
27747;DHT22;15138;51.012;4.692;2023-08-24T03:50:41;19.70;99.90
27747;DHT22;15138;51.012;4.692;2023-08-24T03:53:09;19.70;99.90
27747;DHT22;15138;51.012;4.692;2023-08-24T03:55:38;19.70;99.90
27747;DHT22;15138;51.012;4.692;2023-08-24T03:58:07;19.60;99.90
27747;DHT22;15138;51.012;4.692;2023-08-24T04:00:37;19.50;1.00
27747;DHT22;15138;51.012;4.692;2023-08-24T04:03:06;19.40;99.90
27747;DHT22;15138;51.012;4.692;2023-08-24T04:05:34;19.40;99.90
27747;DHT22;15138;51.012;4.692;2023-08-24T04:08:03;19.30;99.90
27747;DHT22;15138;51.012;4.692;2023-08-24T04:10:31;19.40;58.70
27747;DHT22;15138;51.012;4.692;2023-08-24T04:12:59;19.30;14.20
27747;DHT22;15138;51.012;4.692;2023-08-24T04:15:29;19.30;99.90
27747;DHT22;15138;51.012;4.692;2023-08-24T04:17:57;19.30;99.90
27747;DHT22;15138;51.012;4.692;2023-08-24T04:20:25;19.30;99.90
27747;DHT22;15138;51.012;4.692;2023-08-24T04:22:54;19.30;1.00
27747;DHT22;15138;51.012;4.692;2023-08-24T04:25:23;19.30;99.90
27747;DHT22;15138;51.012;4.692;2023-08-24T04:27:51;19.30;99.90
27747;DHT22;15138;51.012;4.692;2023-08-24T04:30:19;19.40;99.90
27747;DHT22;15138;51.012;4.692;2023-08-24T04:32:49;19.30;1.00
27747;DHT22;15138;51.012;4.692;2023-08-24T04:35:18;19.20;99.90
27747;DHT22;15138;51.012;4.692;2023-08-24T04:37:47;19.00;96.40
27747;DHT22;15138;51.012;4.692;2023-08-24T04:40:15;18.90;99.90
27747;DHT22;15138;51.012;4.692;2023-08-24T04:42:43;18.90;1.00
27747;DHT22;15138;51.012;4.692;2023-08-24T04:45:11;18.90;99.90
27747;DHT22;15138;51.012;4.692;2023-08-24T04:47:41;18.80;1.00
27747;DHT22;15138;51.012;4.692;2023-08-24T04:50:11;18.80;99.90
27747;DHT22;15138;51.012;4.692;2023-08-24T04:52:39;18.80;99.90
27747;DHT22;15138;51.012;4.692;2023-08-24T04:55:08;18.80;1.00
27747;DHT22;15138;51.012;4.692;2023-08-24T04:57:36;18.80;99.90
27747;DHT22;15138;51.012;4.692;2023-08-24T05:00:06;18.80;1.00
27747;DHT22;15138;51.012;4.692;2023-08-24T05:02:34;18.80;92.50
27747;DHT22;15138;51.012;4.692;2023-08-24T05:05:03;18.90;1.00
27747;DHT22;15138;51.012;4.692;2023-08-24T05:07:32;18.90;99.90
27747;DHT22;15138;51.012;4.692;2023-08-24T05:10:00;18.90;1.00
27747;DHT22;15138;51.012;4.692;2023-08-24T05:12:30;19.00;1.00
27747;DHT22;15138;51.012;4.692;2023-08-24T05:15:00;19.10;99.90
27747;DHT22;15138;51.012;4.692;2023-08-24T05:17:28;19.10;99.90
27747;DHT22;15138;51.012;4.692;2023-08-24T05:19:58;19.20;99.90
27747;DHT22;15138;51.012;4.692;2023-08-24T05:22:27;19.20;99.90
27747;DHT22;15138;51.012;4.692;2023-08-24T05:24:57;19.20;99.90
27747;DHT22;15138;51.012;4.692;2023-08-24T05:27:25;19.30;99.90
27747;DHT22;15138;51.012;4.692;2023-08-24T05:29:53;19.30;99.90
27747;DHT22;15138;51.012;4.692;2023-08-24T05:32:21;19.40;99.90
27747;DHT22;15138;51.012;4.692;2023-08-24T05:34:50;19.40;99.90
27747;DHT22;15138;51.012;4.692;2023-08-24T05:37:18;19.40;99.90
27747;DHT22;15138;51.012;4.692;2023-08-24T05:39:46;19.40;99.90
27747;DHT22;15138;51.012;4.692;2023-08-24T05:42:15;19.50;99.90
27747;DHT22;15138;51.012;4.692;2023-08-24T05:44:44;19.50;1.00
27747;DHT22;15138;51.012;4.692;2023-08-24T05:47:12;19.50;99.90
27747;DHT22;15138;51.012;4.692;2023-08-24T05:49:40;19.60;99.90
27747;DHT22;15138;51.012;4.692;2023-08-24T05:52:08;19.70;99.90
27747;DHT22;15138;51.012;4.692;2023-08-24T05:54:36;19.80;99.90
27747;DHT22;15138;51.012;4.692;2023-08-24T05:57:05;19.80;99.90
27747;DHT22;15138;51.012;4.692;2023-08-24T05:59:35;19.80;99.90
27747;DHT22;15138;51.012;4.692;2023-08-24T06:02:03;19.90;99.90
27747;DHT22;15138;51.012;4.692;2023-08-24T06:04:31;19.90;99.90
27747;DHT22;15138;51.012;4.692;2023-08-24T06:06:59;20.00;99.90
27747;DHT22;15138;51.012;4.692;2023-08-24T06:09:28;20.10;99.90
27747;DHT22;15138;51.012;4.692;2023-08-24T06:11:56;20.10;1.00
27747;DHT22;15138;51.012;4.692;2023-08-24T06:14:24;20.20;1.00
27747;DHT22;15138;51.012;4.692;2023-08-24T06:16:53;20.20;1.00
27747;DHT22;15138;51.012;4.692;2023-08-24T06:19:22;20.40;1.00
27747;DHT22;15138;51.012;4.692;2023-08-24T06:21:50;20.50;1.00
27747;DHT22;15138;51.012;4.692;2023-08-24T06:24:18;20.70;1.00
27747;DHT22;15138;51.012;4.692;2023-08-24T06:26:46;20.80;99.90
27747;DHT22;15138;51.012;4.692;2023-08-24T06:29:14;20.90;99.90
27747;DHT22;15138;51.012;4.692;2023-08-24T06:31:42;21.00;99.90
27747;DHT22;15138;51.012;4.692;2023-08-24T06:34:12;21.10;99.90
27747;DHT22;15138;51.012;4.692;2023-08-24T06:36:40;21.30;99.90
27747;DHT22;15138;51.012;4.692;2023-08-24T06:39:08;21.50;1.00
27747;DHT22;15138;51.012;4.692;2023-08-24T06:41:36;21.70;1.00
27747;DHT22;15138;51.012;4.692;2023-08-24T06:44:04;21.90;99.90
27747;DHT22;15138;51.012;4.692;2023-08-24T06:46:33;22.10;99.90
27747;DHT22;15138;51.012;4.692;2023-08-24T06:49:02;22.10;99.90
27747;DHT22;15138;51.012;4.692;2023-08-24T06:51:32;22.20;99.90
27747;DHT22;15138;51.012;4.692;2023-08-24T06:54:00;22.30;99.90
27747;DHT22;15138;51.012;4.692;2023-08-24T06:56:29;22.50;99.90
27747;DHT22;15138;51.012;4.692;2023-08-24T06:58:57;22.50;99.90
27747;DHT22;15138;51.012;4.692;2023-08-24T07:01:25;22.60;99.90
27747;DHT22;15138;51.012;4.692;2023-08-24T07:03:54;22.80;99.90
27747;DHT22;15138;51.012;4.692;2023-08-24T07:06:22;22.90;99.90
27747;DHT22;15138;51.012;4.692;2023-08-24T07:08:53;23.20;91.40
27747;DHT22;15138;51.012;4.692;2023-08-24T07:11:21;23.30;52.60
27747;DHT22;15138;51.012;4.692;2023-08-24T07:13:50;23.60;50.50
27747;DHT22;15138;51.012;4.692;2023-08-24T07:16:20;23.80;46.50
27747;DHT22;15138;51.012;4.692;2023-08-24T07:18:49;24.00;11.30
27747;DHT22;15138;51.012;4.692;2023-08-24T07:21:17;24.10;1.00
27747;DHT22;15138;51.012;4.692;2023-08-24T07:23:45;24.30;1.00
27747;DHT22;15138;51.012;4.692;2023-08-24T07:26:15;24.60;1.00
27747;DHT22;15138;51.012;4.692;2023-08-24T07:28:43;24.70;1.00
27747;DHT22;15138;51.012;4.692;2023-08-24T07:31:11;24.70;1.00
27747;DHT22;15138;51.012;4.692;2023-08-24T07:33:40;24.90;1.00
27747;DHT22;15138;51.012;4.692;2023-08-24T07:36:10;25.00;1.00
27747;DHT22;15138;51.012;4.692;2023-08-24T07:38:38;24.90;1.00
27747;DHT22;15138;51.012;4.692;2023-08-24T07:41:07;25.00;1.00
27747;DHT22;15138;51.012;4.692;2023-08-24T07:43:37;25.10;1.00
27747;DHT22;15138;51.012;4.692;2023-08-24T07:46:05;25.00;1.00
27747;DHT22;15138;51.012;4.692;2023-08-24T07:48:35;25.10;1.00
27747;DHT22;15138;51.012;4.692;2023-08-24T07:51:03;25.10;1.00
27747;DHT22;15138;51.012;4.692;2023-08-24T07:53:31;25.20;1.00
27747;DHT22;15138;51.012;4.692;2023-08-24T07:56:00;25.30;1.00
27747;DHT22;15138;51.012;4.692;2023-08-24T07:58:28;25.40;1.00
27747;DHT22;15138;51.012;4.692;2023-08-24T08:00:59;25.50;1.00
27747;DHT22;15138;51.012;4.692;2023-08-24T08:03:28;25.50;1.00
27747;DHT22;15138;51.012;4.692;2023-08-24T08:05:57;25.60;1.00
27747;DHT22;15138;51.012;4.692;2023-08-24T08:08:26;25.60;1.00
27747;DHT22;15138;51.012;4.692;2023-08-24T08:10:58;25.60;1.00
27747;DHT22;15138;51.012;4.692;2023-08-24T08:13:27;25.50;1.00
27747;DHT22;15138;51.012;4.692;2023-08-24T08:16:03;25.50;1.00
27747;DHT22;15138;51.012;4.692;2023-08-24T08:18:32;25.60;1.00
27747;DHT22;15138;51.012;4.692;2023-08-24T08:21:00;25.70;1.00
27747;DHT22;15138;51.012;4.692;2023-08-24T08:23:29;25.70;1.00
27747;DHT22;15138;51.012;4.692;2023-08-24T08:25:57;25.80;1.00
27747;DHT22;15138;51.012;4.692;2023-08-24T08:28:25;25.70;1.00
27747;DHT22;15138;51.012;4.692;2023-08-24T08:30:53;25.80;1.00
27747;DHT22;15138;51.012;4.692;2023-08-24T08:33:23;25.90;1.00
27747;DHT22;15138;51.012;4.692;2023-08-24T08:35:51;26.00;1.00
27747;DHT22;15138;51.012;4.692;2023-08-24T08:38:19;26.00;1.00
27747;DHT22;15138;51.012;4.692;2023-08-24T08:40:49;26.00;1.00
27747;DHT22;15138;51.012;4.692;2023-08-24T08:43:18;26.10;1.00
27747;DHT22;15138;51.012;4.692;2023-08-24T08:45:47;26.10;1.00
27747;DHT22;15138;51.012;4.692;2023-08-24T08:48:16;26.10;1.00
27747;DHT22;15138;51.012;4.692;2023-08-24T08:50:47;26.20;1.00
27747;DHT22;15138;51.012;4.692;2023-08-24T08:53:16;26.20;1.00
27747;DHT22;15138;51.012;4.692;2023-08-24T08:55:45;26.30;1.00
27747;DHT22;15138;51.012;4.692;2023-08-24T08:58:13;26.40;1.00
27747;DHT22;15138;51.012;4.692;2023-08-24T09:00:42;26.60;1.00
27747;DHT22;15138;51.012;4.692;2023-08-24T09:03:10;26.70;1.00
27747;DHT22;15138;51.012;4.692;2023-08-24T09:05:39;26.80;1.00
27747;DHT22;15138;51.012;4.692;2023-08-24T09:08:09;26.70;1.00
27747;DHT22;15138;51.012;4.692;2023-08-24T09:10:37;26.90;1.00
27747;DHT22;15138;51.012;4.692;2023-08-24T09:13:06;27.10;1.00
27747;DHT22;15138;51.012;4.692;2023-08-24T09:15:35;27.20;1.00
27747;DHT22;15138;51.012;4.692;2023-08-24T09:18:04;27.30;1.00
27747;DHT22;15138;51.012;4.692;2023-08-24T09:20:33;27.30;1.00
27747;DHT22;15138;51.012;4.692;2023-08-24T09:23:02;27.20;1.00
27747;DHT22;15138;51.012;4.692;2023-08-24T09:25:31;27.20;1.00
27747;DHT22;15138;51.012;4.692;2023-08-24T09:28:00;27.20;1.00
27747;DHT22;15138;51.012;4.692;2023-08-24T09:30:31;27.10;1.00
27747;DHT22;15138;51.012;4.692;2023-08-24T09:33:03;27.00;1.00
27747;DHT22;15138;51.012;4.692;2023-08-24T09:35:35;27.00;1.00
27747;DHT22;15138;51.012;4.692;2023-08-24T09:38:16;27.00;1.00
27747;DHT22;15138;51.012;4.692;2023-08-24T09:40:47;26.90;1.00
27747;DHT22;15138;51.012;4.692;2023-08-24T09:43:18;26.80;1.00
27747;DHT22;15138;51.012;4.692;2023-08-24T09:45:51;26.50;1.00
27747;DHT22;15138;51.012;4.692;2023-08-24T09:48:20;26.20;1.00
27747;DHT22;15138;51.012;4.692;2023-08-24T09:50:50;26.00;1.00
27747;DHT22;15138;51.012;4.692;2023-08-24T09:53:19;25.90;1.00
27747;DHT22;15138;51.012;4.692;2023-08-24T09:55:53;25.60;1.00
27747;DHT22;15138;51.012;4.692;2023-08-24T09:58:23;25.40;1.00
27747;DHT22;15138;51.012;4.692;2023-08-24T10:00:52;25.10;1.00
27747;DHT22;15138;51.012;4.692;2023-08-24T10:03:21;25.00;1.00
27747;DHT22;15138;51.012;4.692;2023-08-24T10:05:54;25.10;1.00
27747;DHT22;15138;51.012;4.692;2023-08-24T10:08:35;25.00;1.00
27747;DHT22;15138;51.012;4.692;2023-08-24T10:11:06;24.80;1.00
27747;DHT22;15138;51.012;4.692;2023-08-24T10:13:39;24.60;1.00
27747;DHT22;15138;51.012;4.692;2023-08-24T10:16:08;24.60;1.00
27747;DHT22;15138;51.012;4.692;2023-08-24T10:18:37;24.50;1.00
27747;DHT22;15138;51.012;4.692;2023-08-24T10:21:05;24.30;1.00
27747;DHT22;15138;51.012;4.692;2023-08-24T10:23:36;24.20;1.00
27747;DHT22;15138;51.012;4.692;2023-08-24T10:26:07;24.20;1.00
27747;DHT22;15138;51.012;4.692;2023-08-24T10:28:36;24.10;1.00
27747;DHT22;15138;51.012;4.692;2023-08-24T10:31:05;23.90;1.00
27747;DHT22;15138;51.012;4.692;2023-08-24T10:33:34;23.90;1.00
27747;DHT22;15138;51.012;4.692;2023-08-24T10:36:05;23.80;1.00
27747;DHT22;15138;51.012;4.692;2023-08-24T10:38:35;23.70;1.00
27747;DHT22;15138;51.012;4.692;2023-08-24T10:41:09;23.80;1.00
27747;DHT22;15138;51.012;4.692;2023-08-24T10:43:48;23.90;1.00
27747;DHT22;15138;51.012;4.692;2023-08-24T10:46:17;23.90;1.00
27747;DHT22;15138;51.012;4.692;2023-08-24T10:48:58;23.70;75.20
27747;DHT22;15138;51.012;4.692;2023-08-24T10:51:26;23.30;99.90
27747;DHT22;15138;51.012;4.692;2023-08-24T10:53:57;23.40;99.90
27747;DHT22;15138;51.012;4.692;2023-08-24T10:56:34;23.20;21.70
27747;DHT22;15138;51.012;4.692;2023-08-24T10:59:13;23.00;1.00
27747;DHT22;15138;51.012;4.692;2023-08-24T11:01:42;23.00;81.90
27747;DHT22;15138;51.012;4.692;2023-08-24T11:04:11;23.10;99.90
27747;DHT22;15138;51.012;4.692;2023-08-24T11:06:53;23.10;99.90
27747;DHT22;15138;51.012;4.692;2023-08-24T11:09:22;23.20;1.00
27747;DHT22;15138;51.012;4.692;2023-08-24T11:11:59;23.50;1.00
27747;DHT22;15138;51.012;4.692;2023-08-24T11:14:28;23.90;1.00
27747;DHT22;15138;51.012;4.692;2023-08-24T11:16:58;24.10;23.10
27747;DHT22;15138;51.012;4.692;2023-08-24T11:19:27;24.10;99.90
27747;DHT22;15138;51.012;4.692;2023-08-24T11:21:58;23.90;1.00
27747;DHT22;15138;51.012;4.692;2023-08-24T11:24:27;24.00;1.00
27747;DHT22;15138;51.012;4.692;2023-08-24T11:26:59;24.10;99.90
27747;DHT22;15138;51.012;4.692;2023-08-24T11:29:29;24.50;1.00
27747;DHT22;15138;51.012;4.692;2023-08-24T11:31:58;24.90;84.40
27747;DHT22;15138;51.012;4.692;2023-08-24T11:34:27;25.20;1.00
27747;DHT22;15138;51.012;4.692;2023-08-24T11:36:55;25.40;99.90
27747;DHT22;15138;51.012;4.692;2023-08-24T11:39:23;25.60;99.90
27747;DHT22;15138;51.012;4.692;2023-08-24T11:42:01;25.70;99.90
27747;DHT22;15138;51.012;4.692;2023-08-24T11:44:44;25.30;99.90
27747;DHT22;15138;51.012;4.692;2023-08-24T11:47:12;25.30;99.90
27747;DHT22;15138;51.012;4.692;2023-08-24T11:49:41;25.30;99.90
27747;DHT22;15138;51.012;4.692;2023-08-24T11:52:09;25.30;99.90
27747;DHT22;15138;51.012;4.692;2023-08-24T11:54:37;25.20;99.90
27747;DHT22;15138;51.012;4.692;2023-08-24T11:57:07;25.20;99.90
27747;DHT22;15138;51.012;4.692;2023-08-24T11:59:37;25.30;99.90
27747;DHT22;15138;51.012;4.692;2023-08-24T12:02:08;25.30;99.90
27747;DHT22;15138;51.012;4.692;2023-08-24T12:04:40;25.60;99.90
27747;DHT22;15138;51.012;4.692;2023-08-24T12:07:10;25.70;99.90
27747;DHT22;15138;51.012;4.692;2023-08-24T12:09:39;25.60;99.90
27747;DHT22;15138;51.012;4.692;2023-08-24T12:12:13;25.60;99.90
27747;DHT22;15138;51.012;4.692;2023-08-24T12:14:41;25.80;99.90
27747;DHT22;15138;51.012;4.692;2023-08-24T12:17:10;25.90;99.90
27747;DHT22;15138;51.012;4.692;2023-08-24T12:19:41;25.90;44.50
27747;DHT22;15138;51.012;4.692;2023-08-24T12:22:13;25.80;45.70
27747;DHT22;15138;51.012;4.692;2023-08-24T12:24:43;25.70;58.60
27747;DHT22;15138;51.012;4.692;2023-08-24T12:27:18;25.60;60.00
27747;DHT22;15138;51.012;4.692;2023-08-24T12:29:47;25.30;49.30
27747;DHT22;15138;51.012;4.692;2023-08-24T12:32:16;25.10;1.00
27747;DHT22;15138;51.012;4.692;2023-08-24T12:34:46;24.90;99.90
27747;DHT22;15138;51.012;4.692;2023-08-24T12:39:43;24.50;1.00
27747;DHT22;15138;51.012;4.692;2023-08-24T12:42:11;24.30;1.00
27747;DHT22;15138;51.012;4.692;2023-08-24T12:44:41;23.90;99.90
27747;DHT22;15138;51.012;4.692;2023-08-24T12:47:09;23.90;99.90
27747;DHT22;15138;51.012;4.692;2023-08-24T12:49:38;24.00;99.90
27747;DHT22;15138;51.012;4.692;2023-08-24T12:52:06;23.80;1.00
27747;DHT22;15138;51.012;4.692;2023-08-24T12:54:34;23.50;99.90
27747;DHT22;15138;51.012;4.692;2023-08-24T12:57:03;23.50;99.90
27747;DHT22;15138;51.012;4.692;2023-08-24T12:59:31;23.70;99.90
27747;DHT22;15138;51.012;4.692;2023-08-24T13:02:00;23.50;1.00
27747;DHT22;15138;51.012;4.692;2023-08-24T13:04:29;23.50;1.00
27747;DHT22;15138;51.012;4.692;2023-08-24T13:07:00;23.30;12.50
27747;DHT22;15138;51.012;4.692;2023-08-24T13:09:28;23.30;99.90
27747;DHT22;15138;51.012;4.692;2023-08-24T13:11:56;23.20;99.90
27747;DHT22;15138;51.012;4.692;2023-08-24T13:14:24;23.20;1.00
27747;DHT22;15138;51.012;4.692;2023-08-24T13:16:52;23.20;99.90
27747;DHT22;15138;51.012;4.692;2023-08-24T13:19:22;23.20;1.00
27747;DHT22;15138;51.012;4.692;2023-08-24T13:21:50;23.10;99.90
27747;DHT22;15138;51.012;4.692;2023-08-24T13:24:18;22.90;99.90
27747;DHT22;15138;51.012;4.692;2023-08-24T13:26:47;23.00;99.90
27747;DHT22;15138;51.012;4.692;2023-08-24T13:29:15;23.00;99.90
27747;DHT22;15138;51.012;4.692;2023-08-24T13:31:43;23.10;1.00
27747;DHT22;15138;51.012;4.692;2023-08-24T13:34:12;23.00;14.60
27747;DHT22;15138;51.012;4.692;2023-08-24T13:36:41;23.00;1.00
27747;DHT22;15138;51.012;4.692;2023-08-24T13:39:10;22.80;1.00
27747;DHT22;15138;51.012;4.692;2023-08-24T13:41:38;22.80;99.90
27747;DHT22;15138;51.012;4.692;2023-08-24T13:44:06;22.70;15.20
27747;DHT22;15138;51.012;4.692;2023-08-24T13:46:34;22.90;1.00
27747;DHT22;15138;51.012;4.692;2023-08-24T13:49:03;22.80;1.00
27747;DHT22;15138;51.012;4.692;2023-08-24T13:51:31;22.70;1.00
27747;DHT22;15138;51.012;4.692;2023-08-24T13:54:00;22.70;1.00
27747;DHT22;15138;51.012;4.692;2023-08-24T13:56:28;22.60;1.00
27747;DHT22;15138;51.012;4.692;2023-08-24T13:58:57;22.60;99.90
27747;DHT22;15138;51.012;4.692;2023-08-24T14:01:25;22.60;99.90
27747;DHT22;15138;51.012;4.692;2023-08-24T14:03:53;22.60;99.90
27747;DHT22;15138;51.012;4.692;2023-08-24T14:06:21;22.50;1.00
27747;DHT22;15138;51.012;4.692;2023-08-24T14:08:49;22.60;1.00
27747;DHT22;15138;51.012;4.692;2023-08-24T14:11:19;22.80;99.90
27747;DHT22;15138;51.012;4.692;2023-08-24T14:13:47;22.70;99.90
27747;DHT22;15138;51.012;4.692;2023-08-24T14:16:15;22.80;1.00
27747;DHT22;15138;51.012;4.692;2023-08-24T14:18:44;23.00;1.00
27747;DHT22;15138;51.012;4.692;2023-08-24T14:21:13;23.10;99.90
27747;DHT22;15138;51.012;4.692;2023-08-24T14:23:44;23.10;99.90
27747;DHT22;15138;51.012;4.692;2023-08-24T14:26:12;23.10;55.50
27747;DHT22;15138;51.012;4.692;2023-08-24T14:28:52;23.20;52.30
27747;DHT22;15138;51.012;4.692;2023-08-24T14:31:22;23.30;1.00
27747;DHT22;15138;51.012;4.692;2023-08-24T14:33:51;23.40;1.00
27747;DHT22;15138;51.012;4.692;2023-08-24T14:36:19;23.40;1.00
27747;DHT22;15138;51.012;4.692;2023-08-24T14:38:49;23.60;1.00
27747;DHT22;15138;51.012;4.692;2023-08-24T14:41:18;23.60;1.00
27747;DHT22;15138;51.012;4.692;2023-08-24T14:43:47;23.50;1.00
27747;DHT22;15138;51.012;4.692;2023-08-24T14:46:16;23.60;1.00
27747;DHT22;15138;51.012;4.692;2023-08-24T14:48:44;23.60;1.00
27747;DHT22;15138;51.012;4.692;2023-08-24T14:51:13;23.60;1.00
27747;DHT22;15138;51.012;4.692;2023-08-24T14:53:41;23.70;99.90
27747;DHT22;15138;51.012;4.692;2023-08-24T14:56:10;23.80;99.90
27747;DHT22;15138;51.012;4.692;2023-08-24T14:58:38;23.70;99.90
27747;DHT22;15138;51.012;4.692;2023-08-24T15:01:06;23.70;99.90
27747;DHT22;15138;51.012;4.692;2023-08-24T15:03:36;23.80;99.90
27747;DHT22;15138;51.012;4.692;2023-08-24T15:06:05;24.00;99.90
27747;DHT22;15138;51.012;4.692;2023-08-24T15:08:35;24.10;99.90
27747;DHT22;15138;51.012;4.692;2023-08-24T15:11:04;24.10;99.90
27747;DHT22;15138;51.012;4.692;2023-08-24T15:13:34;24.00;99.90
27747;DHT22;15138;51.012;4.692;2023-08-24T15:16:03;24.10;99.90
27747;DHT22;15138;51.012;4.692;2023-08-24T15:18:31;24.10;99.90
27747;DHT22;15138;51.012;4.692;2023-08-24T15:21:00;24.20;99.90
27747;DHT22;15138;51.012;4.692;2023-08-24T15:23:30;24.20;99.90
27747;DHT22;15138;51.012;4.692;2023-08-24T15:25:59;24.10;99.90
27747;DHT22;15138;51.012;4.692;2023-08-24T15:28:36;24.00;99.90
27747;DHT22;15138;51.012;4.692;2023-08-24T15:31:04;24.00;99.90
27747;DHT22;15138;51.012;4.692;2023-08-24T15:33:33;24.10;99.90
27747;DHT22;15138;51.012;4.692;2023-08-24T15:36:03;24.00;99.90
27747;DHT22;15138;51.012;4.692;2023-08-24T15:38:31;24.10;99.90
27747;DHT22;15138;51.012;4.692;2023-08-24T15:41:00;24.10;99.90
27747;DHT22;15138;51.012;4.692;2023-08-24T15:43:28;24.20;99.90
27747;DHT22;15138;51.012;4.692;2023-08-24T15:45:57;24.10;99.90
27747;DHT22;15138;51.012;4.692;2023-08-24T15:48:25;24.20;99.90
27747;DHT22;15138;51.012;4.692;2023-08-24T15:50:56;24.30;99.90
27747;DHT22;15138;51.012;4.692;2023-08-24T15:53:26;24.40;99.90